Time;durP1;ratioP1;P1;durP2;ratioP2;P2;SDS_P1;SDS_P2;PMS_P1;PMS_P2;Temp;Humidity;BMP_temperature;BMP_pressure;BME280_temperature;BME280_humidity;BME280_pressure;Samples;Min_cycle;Max_cycle;Signal;HPM_P1;HPM_P2
2021/07/03 00:00:29;;;;;;;12.57;4.82;;;15.70;99.90;;;;;;5079163;28;20063;-71
2021/07/03 00:02:55;;;;;;;13.63;4.50;;;15.80;99.90;;;;;;5067484;28;20563;-71
2021/07/03 00:05:21;;;;;;;11.50;4.22;;;15.80;99.90;;;;;;5054096;28;20028;-72
2021/07/03 00:07:47;;;;;;;13.85;5.13;;;15.80;99.90;;;;;;5062637;28;20032;-72
2021/07/03 00:10:12;;;;;;;16.25;6.13;;;15.70;99.90;;;;;;5080422;28;20040;-71
2021/07/03 00:12:39;;;;;;;10.55;5.13;;;15.70;99.90;;;;;;5078148;28;20111;-71
2021/07/03 00:15:08;;;;;;;13.65;4.72;;;15.70;99.90;;;;;;5079207;28;20026;-71
2021/07/03 00:17:34;;;;;;;7.90;4.47;;;15.60;99.90;;;;;;5059739;28;20034;-71
2021/07/03 00:19:59;;;;;;;9.63;4.53;;;15.50;99.90;;;;;;5060513;28;20492;-71
2021/07/03 00:22:25;;;;;;;10.48;4.35;;;15.50;99.90;;;;;;5080163;28;20028;-71
2021/07/03 00:24:50;;;;;;;11.48;5.47;;;15.40;99.90;;;;;;5080010;28;20028;-71
2021/07/03 00:27:16;;;;;;;12.13;4.82;;;15.40;99.90;;;;;;5080792;28;20024;-71
2021/07/03 00:29:41;;;;;;;15.35;4.70;;;15.50;99.90;;;;;;5080291;28;20031;-71
2021/07/03 00:32:07;;;;;;;10.02;5.18;;;15.50;99.90;;;;;;5077744;28;20155;-71
2021/07/03 00:34:33;;;;;;;11.85;4.85;;;15.50;99.90;;;;;;5059777;28;20040;-71
2021/07/03 00:36:58;;;;;;;11.43;4.88;;;15.60;99.90;;;;;;5060919;28;20036;-71
2021/07/03 00:39:25;;;;;;;10.43;4.82;;;15.70;99.90;;;;;;5080183;28;20059;-70
2021/07/03 00:41:51;;;;;;;11.23;5.47;;;15.70;99.90;;;;;;5077060;28;20035;-71
2021/07/03 00:44:31;;;;;;;10.98;4.88;;;15.60;99.90;;;;;;5076954;28;20040;-71
2021/07/03 00:46:58;;;;;;;10.90;5.10;;;15.60;99.90;;;;;;5073770;28;20032;-71
2021/07/03 00:49:24;;;;;;;19.73;5.55;;;15.60;99.90;;;;;;5061530;28;20450;-71
2021/07/03 00:51:50;;;;;;;11.20;5.50;;;15.70;99.90;;;;;;5080730;28;20025;-72
2021/07/03 00:54:15;;;;;;;12.25;5.78;;;15.60;99.90;;;;;;5084277;28;20052;-71
2021/07/03 00:56:41;;;;;;;9.07;4.88;;;15.60;99.90;;;;;;5080096;28;20074;-71
2021/07/03 00:59:07;;;;;;;9.68;4.88;;;15.50;99.90;;;;;;5083305;28;20501;-71
2021/07/03 01:01:32;;;;;;;10.73;5.97;;;15.40;99.90;;;;;;5063721;28;20046;-71
2021/07/03 01:03:58;;;;;;;16.05;5.07;;;15.40;99.90;;;;;;5080397;28;20484;-71
2021/07/03 01:06:27;;;;;;;12.60;5.13;;;15.50;99.90;;;;;;5080556;28;20032;-71
2021/07/03 01:08:52;;;;;;;14.40;6.28;;;15.40;99.90;;;;;;5062725;28;20350;-71
2021/07/03 01:11:26;;;;;;;13.98;5.57;;;15.40;99.90;;;;;;5083744;28;20046;-71
2021/07/03 01:13:52;;;;;;;12.13;6.00;;;15.40;99.90;;;;;;5062451;28;20039;-71
2021/07/03 01:16:18;;;;;;;14.18;5.88;;;15.40;99.90;;;;;;5083483;28;20055;-71
2021/07/03 01:18:43;;;;;;;13.25;5.72;;;15.40;99.90;;;;;;5079675;28;20099;-71
2021/07/03 01:21:10;;;;;;;14.40;5.78;;;15.40;99.90;;;;;;5083864;28;20089;-71
2021/07/03 01:23:35;;;;;;;14.27;6.05;;;15.30;99.90;;;;;;5081017;28;20492;-71
2021/07/03 01:26:01;;;;;;;17.17;6.47;;;15.20;99.90;;;;;;5081379;28;20036;-71
2021/07/03 01:28:26;;;;;;;15.10;6.63;;;15.20;99.90;;;;;;5063721;28;20043;-71
2021/07/03 01:30:53;;;;;;;15.70;6.38;;;15.20;99.90;;;;;;5080878;28;20036;-70
2021/07/03 01:33:19;;;;;;;14.73;7.03;;;15.10;99.90;;;;;;5083010;28;20031;-71
2021/07/03 01:35:45;;;;;;;17.13;7.22;;;15.10;99.90;;;;;;5079255;28;20028;-71
2021/07/03 01:38:16;;;;;;;19.40;6.25;;;15.20;99.90;;;;;;5065753;28;20073;-71
2021/07/03 01:40:42;;;;;;;15.35;6.60;;;15.20;99.90;;;;;;5076021;28;20066;-71
2021/07/03 01:43:07;;;;;;;15.38;6.28;;;15.20;99.90;;;;;;5079075;28;20033;-71
2021/07/03 01:45:33;;;;;;;14.32;6.43;;;15.20;99.90;;;;;;5081219;28;20036;-71
2021/07/03 01:47:58;;;;;;;16.45;7.00;;;15.20;99.90;;;;;;5077503;28;20178;-71
2021/07/03 01:50:24;;;;;;;15.65;6.93;;;15.20;99.90;;;;;;5079320;28;20044;-71
2021/07/03 01:52:51;;;;;;;16.50;7.20;;;15.10;99.90;;;;;;5064874;28;20036;-71
2021/07/03 01:55:16;;;;;;;12.98;7.00;;;15.10;99.90;;;;;;5078646;28;20396;-71
2021/07/03 01:57:42;;;;;;;16.50;7.18;;;15.00;99.90;;;;;;5077813;28;20032;-71
2021/07/03 02:00:10;;;;;;;17.15;6.97;;;15.00;99.90;;;;;;5080839;28;20025;-71
2021/07/03 02:02:36;;;;;;;19.38;8.70;;;15.00;99.90;;;;;;5077225;28;20040;-71
2021/07/03 02:05:03;;;;;;;19.45;6.88;;;15.00;99.90;;;;;;5059487;28;20046;-71
2021/07/03 02:07:29;;;;;;;21.17;7.97;;;15.00;99.90;;;;;;5078222;28;20047;-71
2021/07/03 02:09:54;;;;;;;15.52;6.93;;;15.00;99.90;;;;;;5081746;28;20028;-71
2021/07/03 02:12:20;;;;;;;16.52;7.10;;;15.00;99.90;;;;;;5079288;28;20032;-71
2021/07/03 02:14:46;;;;;;;19.67;7.43;;;15.00;99.90;;;;;;5080891;28;20044;-71
2021/07/03 02:17:11;;;;;;;20.33;8.38;;;15.00;99.90;;;;;;5077707;28;20029;-71
2021/07/03 02:19:37;;;;;;;17.38;8.25;;;15.00;99.90;;;;;;5074233;28;20440;-70
2021/07/03 02:22:03;;;;;;;20.25;8.93;;;15.00;99.90;;;;;;5080593;28;20050;-71
2021/07/03 02:24:29;;;;;;;18.75;8.70;;;15.10;99.90;;;;;;5078964;28;20123;-71
2021/07/03 02:26:54;;;;;;;18.55;8.32;;;15.00;99.90;;;;;;5079216;28;20025;-71
2021/07/03 02:29:20;;;;;;;20.00;8.48;;;15.00;99.90;;;;;;5080317;28;20043;-71
2021/07/03 02:31:45;;;;;;;21.63;9.95;;;15.00;99.90;;;;;;5078609;28;20028;-71
2021/07/03 02:34:11;;;;;;;19.10;9.18;;;15.00;99.90;;;;;;5081027;28;20037;-71
2021/07/03 02:36:36;;;;;;;23.38;9.13;;;15.10;99.90;;;;;;5063099;28;20400;-71
2021/07/03 02:39:04;;;;;;;20.58;8.35;;;15.10;99.90;;;;;;5077693;28;20035;-71
2021/07/03 02:41:30;;;;;;;22.38;10.20;;;15.10;99.90;;;;;;5061480;28;20028;-70
2021/07/03 02:43:58;;;;;;;21.08;9.55;;;15.10;99.90;;;;;;5041796;28;1092970;-71
2021/07/03 02:46:24;;;;;;;23.00;10.00;;;15.10;99.90;;;;;;5064118;28;20028;-71
2021/07/03 02:48:50;;;;;;;23.98;10.50;;;15.20;99.90;;;;;;5060208;28;20696;-71
2021/07/03 02:51:15;;;;;;;23.83;11.43;;;15.20;99.90;;;;;;5080758;28;20051;-71
2021/07/03 02:53:41;;;;;;;24.80;10.40;;;15.30;99.90;;;;;;5061160;28;20044;-71
2021/07/03 02:56:06;;;;;;;28.90;11.43;;;15.40;99.90;;;;;;5062924;28;20488;-71
2021/07/03 02:58:32;;;;;;;30.55;12.45;;;15.40;99.90;;;;;;5069544;28;20024;-71
2021/07/03 03:00:57;;;;;;;27.75;11.05;;;15.40;99.90;;;;;;5074798;28;20404;-71
2021/07/03 03:03:23;;;;;;;30.08;12.10;;;15.30;99.90;;;;;;5081232;28;20048;-71
2021/07/03 03:05:49;;;;;;;29.75;12.48;;;15.40;99.90;;;;;;5079621;28;20401;-70
2021/07/03 03:08:14;;;;;;;25.67;11.00;;;15.40;99.90;;;;;;5077145;28;20033;-71
2021/07/03 03:10:40;;;;;;;29.73;11.32;;;15.40;99.90;;;;;;5076667;28;20033;-71
2021/07/03 03:13:06;;;;;;;30.17;12.52;;;15.40;99.90;;;;;;5081316;28;20024;-71
2021/07/03 03:15:32;;;;;;;30.60;13.07;;;15.50;99.90;;;;;;5076911;28;20119;-70
2021/07/03 03:17:57;;;;;;;28.80;12.25;;;15.50;99.90;;;;;;5062744;28;20062;-71
2021/07/03 03:20:23;;;;;;;29.60;13.23;;;15.50;99.90;;;;;;5060981;28;20036;-71
2021/07/03 03:22:48;;;;;;;31.50;13.20;;;15.50;99.90;;;;;;5061610;28;20029;-71
2021/07/03 03:25:14;;;;;;;29.50;13.57;;;15.50;99.90;;;;;;5061669;28;20162;-71
2021/07/03 03:27:40;;;;;;;30.42;12.30;;;15.60;99.90;;;;;;5078095;28;20033;-71
2021/07/03 03:30:07;;;;;;;25.42;12.35;;;15.60;99.90;;;;;;5077185;28;20031;-71
2021/07/03 03:32:32;;;;;;;28.23;12.43;;;15.60;99.90;;;;;;5081619;28;20039;-71
2021/07/03 03:34:58;;;;;;;29.65;13.15;;;15.70;99.90;;;;;;5077232;28;20020;-72
2021/07/03 03:37:24;;;;;;;34.13;13.52;;;15.70;99.90;;;;;;5078618;28;20035;-71
2021/07/03 03:39:49;;;;;;;28.45;13.15;;;15.80;99.90;;;;;;5078955;28;20032;-71
2021/07/03 03:42:15;;;;;;;33.08;12.88;;;15.80;99.90;;;;;;5078104;28;20149;-70
2021/07/03 03:44:40;;;;;;;32.70;13.27;;;15.80;99.90;;;;;;5079888;28;20028;-71
2021/07/03 03:47:06;;;;;;;30.00;12.75;;;15.80;99.90;;;;;;5080830;28;20029;-71
2021/07/03 03:49:31;;;;;;;30.25;13.68;;;15.80;99.90;;;;;;5069000;28;20416;-71
2021/07/03 03:51:57;;;;;;;34.20;14.40;;;15.80;99.90;;;;;;5081567;28;20027;-71
2021/07/03 03:54:23;;;;;;;25.95;11.68;;;15.80;99.90;;;;;;5061183;28;20032;-71
2021/07/03 03:57:21;;;;;;;36.85;14.15;;;15.80;99.90;;;;;;5081129;28;20036;-71
2021/07/03 03:59:34;;;;;;;28.10;13.10;;;15.90;99.90;;;;;;5073569;28;20032;-71
2021/07/03 04:02:00;;;;;;;32.53;12.57;;;15.90;99.90;;;;;;5077147;28;20561;-71
2021/07/03 04:04:26;;;;;;;29.23;12.52;;;15.80;99.90;;;;;;5079721;28;20032;-71
2021/07/03 04:06:51;;;;;;;26.58;12.45;;;15.90;99.90;;;;;;5078514;28;20028;-71
2021/07/03 04:09:17;;;;;;;26.73;11.55;;;15.90;99.90;;;;;;5078467;28;20028;-71
2021/07/03 04:11:42;;;;;;;31.50;12.68;;;15.80;99.90;;;;;;5079778;28;20113;-71
2021/07/03 04:14:08;;;;;;;25.65;10.98;;;15.90;99.90;;;;;;5059313;28;20492;-71
2021/07/03 04:16:33;;;;;;;31.70;12.48;;;15.90;99.90;;;;;;5076461;28;20471;-71
2021/07/03 04:18:59;;;;;;;28.85;12.55;;;15.90;99.90;;;;;;5080465;28;20039;-71
2021/07/03 04:21:24;;;;;;;34.50;12.82;;;15.90;99.90;;;;;;5076799;28;20067;-71
2021/07/03 04:23:50;;;;;;;27.40;12.95;;;15.90;99.90;;;;;;5079476;28;20039;-71
2021/07/03 04:26:15;;;;;;;31.75;12.38;;;16.00;99.90;;;;;;5078210;28;20518;-71
2021/07/03 04:28:41;;;;;;;29.63;12.40;;;16.10;99.90;;;;;;5078134;28;20443;-71
2021/07/03 04:31:07;;;;;;;31.15;12.80;;;16.20;99.90;;;;;;5080220;28;20119;-71
2021/07/03 04:33:32;;;;;;;27.40;11.82;;;16.20;99.90;;;;;;5058700;28;20048;-71
2021/07/03 04:35:58;;;;;;;28.00;12.45;;;16.30;99.90;;;;;;5061999;28;20081;-71
2021/07/03 04:38:23;;;;;;;27.90;12.73;;;16.40;99.90;;;;;;5057952;28;20157;-71
2021/07/03 04:40:49;;;;;;;27.83;12.80;;;16.40;99.90;;;;;;5058430;28;20055;-71
2021/07/03 04:43:14;;;;;;;25.60;12.25;;;16.50;99.90;;;;;;5060669;28;20035;-71
2021/07/03 04:45:40;;;;;;;33.08;13.30;;;16.60;99.90;;;;;;5077627;28;20064;-71
2021/07/03 04:48:06;;;;;;;32.03;13.82;;;16.60;99.90;;;;;;5060416;28;20032;-71
2021/07/03 04:50:31;;;;;;;28.48;12.38;;;16.60;99.90;;;;;;5076136;28;20033;-71
2021/07/03 04:52:57;;;;;;;30.67;13.48;;;16.60;99.90;;;;;;5080028;28;20045;-71
2021/07/03 04:55:22;;;;;;;31.63;13.38;;;16.70;99.90;;;;;;5057698;28;20039;-71
2021/07/03 04:57:50;;;;;;;29.52;13.88;;;16.70;99.90;;;;;;5060247;28;20029;-71
2021/07/03 05:00:16;;;;;;;31.10;13.63;;;16.70;99.90;;;;;;5063204;28;20043;-71
2021/07/03 05:02:42;;;;;;;33.58;14.70;;;16.70;99.90;;;;;;5076167;28;20032;-71
2021/07/03 05:05:08;;;;;;;31.40;14.50;;;16.70;99.90;;;;;;5059391;28;20099;-71
2021/07/03 05:07:33;;;;;;;32.15;14.05;;;16.80;99.90;;;;;;5057585;28;20127;-71
2021/07/03 05:09:59;;;;;;;30.92;14.80;;;16.70;99.90;;;;;;5076881;28;20123;-71
2021/07/03 05:12:24;;;;;;;33.05;13.50;;;16.80;99.90;;;;;;5061847;28;20036;-70
2021/07/03 05:14:50;;;;;;;34.00;15.23;;;16.90;99.90;;;;;;5077211;28;20461;-71
2021/07/03 05:17:15;;;;;;;37.58;15.35;;;16.90;99.90;;;;;;5080867;28;20094;-71
2021/07/03 05:19:41;;;;;;;33.28;15.55;;;17.00;99.90;;;;;;5076176;28;20044;-71
2021/07/03 05:22:07;;;;;;;35.35;15.57;;;17.10;99.90;;;;;;5080904;28;20035;-71
2021/07/03 05:24:32;;;;;;;33.13;15.75;;;17.20;99.90;;;;;;5080063;28;20085;-71
2021/07/03 05:26:58;;;;;;;28.77;13.45;;;17.30;99.90;;;;;;5058737;28;20086;-72
2021/07/03 05:29:23;;;;;;;34.67;16.08;;;17.40;99.90;;;;;;5076525;28;20044;-70
2021/07/03 05:31:51;;;;;;;32.85;15.60;;;17.60;99.90;;;;;;5073368;28;20037;-71
2021/07/03 05:34:16;;;;;;;33.95;15.18;;;17.70;99.90;;;;;;5075271;28;20036;-71
2021/07/03 05:36:45;;;;;;;30.75;14.15;;;17.70;99.90;;;;;;5063577;28;20051;-71
2021/07/03 05:39:10;;;;;;;32.00;15.25;;;17.90;99.90;;;;;;5062302;28;20032;-72
2021/07/03 05:41:36;;;;;;;29.27;13.65;;;18.30;99.90;;;;;;5080701;28;20032;-70
2021/07/03 05:44:02;;;;;;;29.63;14.15;;;18.50;99.90;;;;;;5080417;28;20043;-73
2021/07/03 05:46:28;;;;;;;29.45;13.82;;;18.50;99.90;;;;;;5079630;28;20033;-72
2021/07/03 05:48:54;;;;;;;31.70;14.02;;;18.60;99.90;;;;;;5078505;28;20067;-73
2021/07/03 05:51:25;;;;;;;29.88;13.70;;;18.70;99.90;;;;;;5055127;28;20559;-72
2021/07/03 05:53:51;;;;;;;27.42;14.30;;;18.60;99.90;;;;;;5077750;28;20059;-72
2021/07/03 05:56:17;;;;;;;29.17;13.98;;;18.50;99.90;;;;;;5073593;28;20071;-73
2021/07/03 05:58:42;;;;;;;31.48;14.48;;;18.40;99.90;;;;;;5074449;28;20063;-73
2021/07/03 06:01:08;;;;;;;27.33;13.85;;;18.30;99.90;;;;;;5074673;28;20032;-73
2021/07/03 06:03:33;;;;;;;28.92;14.43;;;18.20;99.90;;;;;;5081892;28;20043;-73
2021/07/03 06:05:59;;;;;;;27.75;13.73;;;18.00;99.90;;;;;;5060621;28;20170;-73
2021/07/03 06:08:25;;;;;;;26.23;13.40;;;17.80;99.90;;;;;;5083498;28;20064;-73
2021/07/03 06:10:50;;;;;;;27.77;12.70;;;17.90;99.90;;;;;;5078825;28;20078;-72
2021/07/03 06:13:16;;;;;;;26.88;14.00;;;17.90;99.90;;;;;;5081641;28;20024;-73
2021/07/03 06:15:41;;;;;;;30.52;13.23;;;18.10;99.90;;;;;;5062250;28;20132;-72
2021/07/03 06:18:07;;;;;;;27.58;13.35;;;18.40;99.90;;;;;;5060988;28;20035;-73
2021/07/03 06:20:33;;;;;;;24.38;11.57;;;18.60;99.90;;;;;;5080134;28;20064;-72
2021/07/03 06:22:58;;;;;;;23.83;11.73;;;19.00;99.90;;;;;;5078011;28;20090;-73
2021/07/03 06:25:24;;;;;;;32.92;13.63;;;19.40;99.90;;;;;;5083187;28;20028;-72
2021/07/03 06:27:49;;;;;;;25.05;12.57;;;19.70;99.90;;;;;;5063489;28;20036;-73
2021/07/03 06:30:16;;;;;;;22.05;11.27;;;19.90;99.90;;;;;;5078708;28;20607;-72
2021/07/03 06:32:41;;;;;;;28.88;13.30;;;20.10;99.90;;;;;;5080121;28;20101;-70
2021/07/03 06:35:08;;;;;;;21.95;11.65;;;20.50;99.90;;;;;;5062313;28;20107;-72
2021/07/03 06:37:33;;;;;;;22.48;11.45;;;20.50;99.90;;;;;;5081613;28;20040;-71
2021/07/03 06:39:59;;;;;;;28.98;12.00;;;20.90;99.90;;;;;;5060573;28;20028;-73
2021/07/03 06:42:25;;;;;;;22.30;11.18;;;21.10;99.90;;;;;;5061063;28;20032;-72
2021/07/03 06:44:51;;;;;;;23.17;11.70;;;21.30;99.90;;;;;;5080617;28;20052;-73
2021/07/03 06:47:17;;;;;;;20.35;11.05;;;21.50;99.90;;;;;;5078886;28;20402;-73
2021/07/03 06:49:43;;;;;;;20.52;10.75;;;21.80;99.90;;;;;;5077341;28;20039;-73
2021/07/03 06:52:10;;;;;;;19.85;10.38;;;22.10;99.90;;;;;;5050138;28;20036;-72
2021/07/03 06:54:37;;;;;;;19.27;10.27;;;22.50;99.90;;;;;;5074434;28;20053;-73
2021/07/03 06:57:03;;;;;;;21.88;9.75;;;22.80;99.90;;;;;;5075143;28;20024;-71
2021/07/03 06:59:30;;;;;;;17.85;9.18;;;23.70;99.90;;;;;;5077878;28;20039;-71
2021/07/03 07:01:56;;;;;;;16.40;9.68;;;24.60;99.90;;;;;;5076958;28;20021;-71
2021/07/03 07:04:22;;;;;;;19.48;10.95;;;25.40;99.90;;;;;;5076133;28;20024;-71
2021/07/03 07:06:52;;;;;;;19.35;10.13;;;25.80;99.90;;;;;;5080158;28;20461;-71
2021/07/03 07:09:18;;;;;;;17.63;10.02;;;26.30;99.90;;;;;;5075008;28;20524;-71
2021/07/03 07:11:45;;;;;;;19.08;10.63;;;27.50;99.90;;;;;;5057826;28;20123;-72
2021/07/03 07:14:11;;;;;;;18.05;11.13;;;28.40;98.70;;;;;;5076002;28;20038;-73
2021/07/03 07:16:37;;;;;;;20.83;13.02;;;29.10;97.90;;;;;;5078373;28;20503;-75
2021/07/03 07:19:03;;;;;;;23.42;13.43;;;30.00;93.00;;;;;;5078453;28;20047;-72
2021/07/03 07:21:29;;;;;;;23.92;12.43;;;30.10;91.00;;;;;;5077039;28;20035;-72
2021/07/03 07:23:55;;;;;;;16.88;12.55;;;30.60;88.10;;;;;;5052923;28;20020;-72
2021/07/03 07:26:20;;;;;;;16.25;12.13;;;31.10;86.40;;;;;;5058901;28;20035;-72
2021/07/03 07:28:48;;;;;;;20.80;13.82;;;31.20;84.50;;;;;;5080664;28;20034;-72
2021/07/03 07:31:13;;;;;;;19.30;13.52;;;31.40;79.90;;;;;;5078678;28;20036;-74
2021/07/03 07:33:39;;;;;;;19.80;12.95;;;32.00;81.60;;;;;;5080348;28;20082;-72
2021/07/03 07:36:04;;;;;;;20.75;13.95;;;32.40;77.00;;;;;;5061046;28;20032;-72
2021/07/03 07:38:30;;;;;;;16.58;12.38;;;32.80;74.10;;;;;;5078827;28;20433;-72
2021/07/03 07:40:56;;;;;;;16.92;13.18;;;33.20;72.40;;;;;;5079834;28;20028;-73
2021/07/03 07:43:22;;;;;;;18.58;14.18;;;33.10;70.40;;;;;;5072541;28;20036;-73
2021/07/03 07:45:48;;;;;;;21.83;13.95;;;33.50;68.30;;;;;;5058429;28;20667;-72
2021/07/03 07:48:13;;;;;;;19.58;13.55;;;33.40;66.10;;;;;;5080188;28;20032;-72
2021/07/03 07:50:40;;;;;;;19.77;14.20;;;33.10;66.40;;;;;;5078618;28;20042;-72
2021/07/03 07:53:05;;;;;;;20.85;14.63;;;33.40;65.20;;;;;;5074457;28;20036;-72
2021/07/03 07:55:31;;;;;;;19.60;13.50;;;33.40;66.00;;;;;;5068500;28;20040;-72
2021/07/03 07:57:57;;;;;;;20.55;14.05;;;33.40;63.00;;;;;;5075312;28;20872;-73
2021/07/03 08:00:22;;;;;;;17.98;12.25;;;33.20;63.70;;;;;;5056772;28;20036;-73
2021/07/03 08:02:49;;;;;;;18.30;12.20;;;32.90;65.50;;;;;;5052173;28;20488;-72
2021/07/03 08:05:16;;;;;;;15.95;11.65;;;33.00;62.90;;;;;;5074603;28;20032;-72
2021/07/03 08:07:41;;;;;;;16.33;12.40;;;33.50;62.10;;;;;;5080359;28;20031;-73
2021/07/03 08:10:08;;;;;;;16.35;11.00;;;33.50;61.10;;;;;;5078160;28;20040;-72
2021/07/03 08:12:34;;;;;;;17.35;11.18;;;33.50;61.30;;;;;;5079254;28;20400;-72
2021/07/03 08:14:59;;;;;;;16.98;11.63;;;33.40;61.90;;;;;;5078904;28;20039;-74
2021/07/03 08:17:25;;;;;;;17.13;10.68;;;33.20;60.70;;;;;;5061841;28;20028;-72
2021/07/03 08:19:51;;;;;;;15.55;11.73;;;33.00;62.70;;;;;;5059359;28;20051;-73
2021/07/03 08:22:16;;;;;;;15.38;10.93;;;33.40;61.20;;;;;;5074904;28;20039;-72
2021/07/03 08:24:42;;;;;;;14.25;10.50;;;33.70;61.00;;;;;;5080107;28;20107;-73
2021/07/03 08:27:07;;;;;;;14.65;11.02;;;33.80;60.90;;;;;;5078166;28;20028;-70
2021/07/03 08:29:33;;;;;;;17.27;12.13;;;33.80;59.00;;;;;;5078854;28;20090;-71
2021/07/03 08:31:58;;;;;;;13.52;9.75;;;33.20;60.50;;;;;;5078242;28;20458;-74
2021/07/03 08:34:24;;;;;;;13.52;10.40;;;33.40;60.10;;;;;;5057467;28;20112;-73
2021/07/03 08:36:49;;;;;;;12.27;9.13;;;33.60;58.50;;;;;;5078966;28;20020;-72
2021/07/03 08:39:15;;;;;;;15.20;10.27;;;33.50;60.10;;;;;;5059989;28;20036;-73
2021/07/03 08:41:41;;;;;;;16.92;9.55;;;33.60;58.40;;;;;;5079143;28;20042;-73
2021/07/03 08:44:10;;;;;;;13.23;8.93;;;33.20;57.80;;;;;;5077290;28;20756;-73
2021/07/03 08:46:36;;;;;;;11.95;8.27;;;32.60;58.60;;;;;;5079142;28;20039;-73
2021/07/03 08:49:03;;;;;;;17.30;7.63;;;32.20;59.80;;;;;;5078614;28;20039;-73
2021/07/03 08:51:28;;;;;;;10.77;8.27;;;31.40;59.80;;;;;;5078838;28;20123;-72
2021/07/03 08:53:54;;;;;;;12.30;8.55;;;30.80;62.80;;;;;;5078393;28;20113;-73
2021/07/03 08:56:20;;;;;;;15.38;7.13;;;30.40;65.80;;;;;;5073456;28;20523;-73
2021/07/03 08:58:46;;;;;;;10.40;6.85;;;30.60;63.00;;;;;;5076910;28;20025;-73
2021/07/03 09:01:11;;;;;;;11.75;6.50;;;30.40;64.40;;;;;;5064789;28;20073;-73
2021/07/03 09:03:37;;;;;;;12.48;6.63;;;30.20;63.30;;;;;;5076432;28;20024;-73
2021/07/03 09:06:07;;;;;;;10.90;6.22;;;30.00;64.30;;;;;;5074883;28;20033;-73
2021/07/03 09:08:33;;;;;;;9.75;5.47;;;29.70;65.40;;;;;;5074649;28;20024;-73
2021/07/03 09:11:03;;;;;;;11.35;5.40;;;29.30;65.20;;;;;;5077997;28;20057;-73
2021/07/03 09:13:30;;;;;;;12.93;4.70;;;29.00;68.20;;;;;;5084192;28;20544;-73
2021/07/03 09:15:56;;;;;;;8.15;5.00;;;28.80;66.20;;;;;;5083336;28;20139;-73
2021/07/03 09:18:21;;;;;;;8.77;4.75;;;28.70;69.60;;;;;;5084761;28;20158;-74
2021/07/03 09:20:52;;;;;;;8.95;4.85;;;28.60;66.90;;;;;;5080891;28;20063;-73
2021/07/03 09:23:20;;;;;;;13.40;4.93;;;28.40;67.50;;;;;;5072870;28;20484;-72
2021/07/03 09:25:56;;;;;;;8.32;3.75;;;28.00;70.50;;;;;;5075502;28;20033;-73
2021/07/03 09:28:27;;;;;;;6.57;3.72;;;28.00;69.50;;;;;;5074075;28;20036;-73
2021/07/03 09:30:55;;;;;;;8.45;5.00;;;27.70;68.60;;;;;;5083034;28;20115;-73
2021/07/03 09:33:30;;;;;;;11.93;5.22;;;27.40;69.60;;;;;;5082071;28;20025;-73
2021/07/03 09:36:06;;;;;;;7.43;4.38;;;27.20;69.90;;;;;;5078189;28;20119;-73
2021/07/03 09:38:41;;;;;;;6.38;3.95;;;26.90;70.90;;;;;;5078475;28;20040;-73
2021/07/03 09:41:32;;;;;;;9.52;4.57;;;26.30;73.20;;;;;;5057012;28;20175;-73
2021/07/03 09:44:09;;;;;;;10.15;5.75;;;26.30;73.80;;;;;;5070224;28;20047;-73
2021/07/03 09:46:47;;;;;;;6.93;3.85;;;26.40;74.40;;;;;;5052658;28;20062;-73
2021/07/03 09:49:15;;;;;;;7.20;3.97;;;26.40;73.50;;;;;;5056736;28;20044;-73
2021/07/03 09:51:55;;;;;;;7.35;3.72;;;26.50;73.10;;;;;;5081420;28;20036;-73
2021/07/03 09:54:23;;;;;;;;;;;26.50;73.90;;;;;;5058695;28;20032;-73
2021/07/03 09:56:59;;;;;;;9.23;4.05;;;26.50;77.10;;;;;;5081722;28;19915;-73
2021/07/03 09:59:29;;;;;;;6.22;3.60;;;26.50;73.60;;;;;;5081248;28;20048;-73
2021/07/03 10:01:55;;;;;;;11.18;4.40;;;26.20;74.10;;;;;;5079138;28;20067;-73
2021/07/03 10:04:20;;;;;;;10.00;4.63;;;26.20;75.90;;;;;;5080675;28;20377;-72
2021/07/03 10:06:54;;;;;;;12.50;4.90;;;26.10;74.80;;;;;;5064099;28;20558;-73
2021/07/03 10:09:36;;;;;;;8.27;4.45;;;25.90;76.10;;;;;;5080499;28;20028;-73
2021/07/03 10:12:06;;;;;;;6.88;4.13;;;25.80;77.00;;;;;;5081189;28;20028;-73
2021/07/03 10:14:39;;;;;;;7.85;4.65;;;25.60;80.60;;;;;;5079750;28;20111;-73
2021/07/03 10:17:06;;;;;;;6.57;3.85;;;25.50;78.90;;;;;;5080029;28;20025;-73
2021/07/03 10:19:34;;;;;;;8.18;4.20;;;25.50;79.70;;;;;;5078693;28;20039;-72
2021/07/03 10:22:14;;;;;;;13.00;4.32;;;25.50;81.00;;;;;;5059063;28;20476;-73
2021/07/03 10:24:41;;;;;;;;;;;25.60;83.50;;;;;;5069919;28;20032;-72
2021/07/03 10:27:20;;;;;;;6.22;2.80;;;26.00;80.60;;;;;;5075176;28;19919;-72
2021/07/03 10:29:47;;;;;;;11.30;4.33;;;26.10;79.20;;;;;;5065445;28;20033;-72
2021/07/03 10:32:30;;;;;;;9.40;4.22;;;26.10;78.60;;;;;;5079150;28;20259;-73
2021/07/03 10:35:20;;;;;;;7.53;4.05;;;26.30;79.30;;;;;;5078967;28;20029;-73
2021/07/03 10:37:46;;;;;;;6.03;3.92;;;26.40;79.50;;;;;;5076251;28;20028;-73
2021/07/03 10:40:16;;;;;;;8.25;4.10;;;26.40;78.70;;;;;;5065261;28;20028;-72
2021/07/03 10:42:41;;;;;;;6.95;3.60;;;26.50;78.60;;;;;;5071291;28;20040;-73
2021/07/03 10:45:15;;;;;;;7.90;4.07;;;26.50;77.30;;;;;;5060271;28;20441;-73
2021/07/03 10:47:42;;;;;;;7.35;3.50;;;26.40;78.90;;;;;;5082646;28;20024;-72
2021/07/03 10:50:17;;;;;;;8.45;3.10;;;26.40;78.00;;;;;;5069985;28;20435;-73
2021/07/03 10:52:42;;;;;;;5.82;3.10;;;26.30;78.10;;;;;;5053589;28;20042;-72
2021/07/03 10:55:08;;;;;;;6.18;3.13;;;26.20;77.50;;;;;;5067243;28;20505;-73
2021/07/03 10:57:43;;;;;;;8.93;3.08;;;26.10;79.10;;;;;;5044848;28;20063;-73
2021/07/03 11:00:11;;;;;;;5.93;2.58;;;26.00;77.80;;;;;;5069012;28;20063;-73
2021/07/03 11:02:38;;;;;;;5.93;2.80;;;26.00;81.30;;;;;;5058905;28;20495;-72
2021/07/03 11:05:12;;;;;;;6.15;3.65;;;25.90;83.10;;;;;;5054321;28;20028;-73
2021/07/03 11:07:39;;;;;;;5.65;3.50;;;26.00;79.00;;;;;;5052486;28;20028;-73
2021/07/03 11:10:12;;;;;;;7.88;3.42;;;26.10;78.50;;;;;;5075767;28;20051;-72
2021/07/03 11:12:52;;;;;;;6.88;2.70;;;26.00;79.30;;;;;;5054885;28;20116;-73
2021/07/03 11:15:27;;;;;;;6.25;2.88;;;26.00;78.70;;;;;;5071616;28;20046;-73
2021/07/03 11:17:55;;;;;;;5.95;3.38;;;25.90;78.60;;;;;;5077943;28;20028;-72
2021/07/03 11:20:30;;;;;;;4.82;2.75;;;26.00;78.30;;;;;;5059691;28;20032;-72
2021/07/03 11:22:57;;;;;;;6.93;3.10;;;26.00;79.20;;;;;;5077749;28;20703;-72
2021/07/03 11:25:31;;;;;;;6.63;2.55;;;26.00;80.70;;;;;;5072481;28;20043;-73
2021/07/03 11:28:18;;;;;;;6.20;3.38;;;26.30;79.70;;;;;;5055973;28;20075;-73
2021/07/03 11:30:47;;;;;;;5.85;2.63;;;26.70;77.70;;;;;;5046945;28;20053;-71
2021/07/03 11:33:14;;;;;;;5.75;2.92;;;26.80;78.90;;;;;;5043967;28;20063;-73
2021/07/03 11:35:44;;;;;;;5.82;2.88;;;27.00;78.10;;;;;;5074809;28;20036;-73
2021/07/03 11:38:10;;;;;;;8.55;2.92;;;26.90;77.30;;;;;;5064114;28;20827;-73
2021/07/03 11:40:36;;;;;;;5.38;2.83;;;27.00;77.70;;;;;;5063576;28;20028;-74
2021/07/03 11:43:03;;;;;;;9.50;2.72;;;26.90;76.60;;;;;;5078102;28;20400;-74
2021/07/03 11:45:36;;;;;;;7.38;2.92;;;26.90;77.40;;;;;;5057747;28;20147;-73
2021/07/03 11:48:07;;;;;;;5.32;2.88;;;26.80;79.00;;;;;;5080589;28;20028;-73
2021/07/03 11:50:35;;;;;;;5.53;3.10;;;26.60;80.70;;;;;;5059644;28;20048;-72
2021/07/03 11:53:03;;;;;;;8.60;3.53;;;26.60;77.70;;;;;;5073870;28;20052;-73
2021/07/03 11:55:33;;;;;;;5.35;2.95;;;26.40;79.80;;;;;;5062049;28;20029;-72
2021/07/03 11:58:01;;;;;;;6.03;2.50;;;26.30;77.70;;;;;;5063140;28;20437;-73
2021/07/03 12:00:29;;;;;;;4.32;2.70;;;26.10;79.10;;;;;;5067705;28;20035;-73
2021/07/03 12:02:57;;;;;;;6.03;3.00;;;26.00;80.10;;;;;;5070562;28;20040;-73
2021/07/03 12:05:28;;;;;;;5.88;2.88;;;25.90;79.60;;;;;;5079990;28;20029;-73
2021/07/03 12:07:59;;;;;;;5.97;3.33;;;25.80;81.50;;;;;;5074505;28;20032;-72
2021/07/03 12:11:01;;;;;;;4.88;3.08;;;25.70;81.70;;;;;;5059862;28;20578;-73
2021/07/03 12:13:27;;;;;;;5.72;2.80;;;25.60;82.80;;;;;;5085234;28;20024;-73
2021/07/03 12:15:59;;;;;;;4.90;2.75;;;25.40;83.80;;;;;;5081794;28;20032;-72
2021/07/03 12:18:36;;;;;;;7.65;2.70;;;25.40;83.30;;;;;;5075177;28;20094;-73
2021/07/03 12:21:07;;;;;;;7.55;3.22;;;25.40;84.00;;;;;;5063930;28;20029;-73
2021/07/03 12:23:34;;;;;;;7.93;3.22;;;25.40;84.40;;;;;;5055384;28;20039;-73
2021/07/03 12:26:03;;;;;;;6.93;3.40;;;25.30;85.20;;;;;;5080070;28;20069;-73
2021/07/03 12:28:29;;;;;;;7.78;3.47;;;25.40;84.80;;;;;;5059129;28;20078;-73
2021/07/03 12:31:04;;;;;;;5.53;2.92;;;25.40;85.20;;;;;;5080012;28;20048;-72
2021/07/03 12:33:30;;;;;;;11.27;3.42;;;25.50;86.20;;;;;;5077059;28;20068;-73
2021/07/03 12:35:55;;;;;;;8.18;3.95;;;25.50;86.00;;;;;;5081797;28;20058;-72